Flight Track Log - Related Links

Times and Time Zones

All times are in EST time to prevent confusion due to time zone crossing. See the WJA399 flight status page for this flight to view local times or setup timezone preferences in your user account.

Time Position Orientation Groundspeed Altitude Reporting Facility
EST Latitude Longitude Course Direction KTS MPH feet Rate Location/Type
07:08PM 49.9000 -97.2500 297° West 130 150 1,700  Level Winnipeg Center
07:09PM 49.9167 -97.3000 297° West 170 196 4,300 2,250 Climbing Winnipeg Center
07:10PM 49.9333 -97.3833 287° West 240 276 6,200 2,900 Climbing Winnipeg Center
07:11PM 49.9500 -97.5167 281° West 250 288 10,100 3,150 Climbing Winnipeg Center
07:12PM 49.9500 -97.6167 270° West 290 334 12,500 3,150 Climbing Winnipeg Center
07:13PM 50.0026 -98.1245 297° West  Level FlightAware Approximate
07:13PM 49.9667 -97.7500 281° West 290 334 16,400  Level Winnipeg Center
07:14PM 49.9833 -97.8833 281° West 290 334 20,000 3,300 Climbing Winnipeg Center
07:15PM 50.0000 -98.0000 283° West 300 345 23,000 2,850 Climbing Winnipeg Center
07:16PM 50.0000 -98.1333 270° West 310 357 25,700 2,400 Climbing Winnipeg Center
07:17PM 50.0000 -98.2667 270° West 320 368 27,800 2,000 Climbing Winnipeg Center
07:18PM 50.0167 -98.4167 280° West 330 380 29,700 1,750 Climbing Winnipeg Center
07:19PM 50.0333 -98.5500 281° West 340 391 31,300 1,300 Climbing Winnipeg Center
07:20PM 50.0500 -98.7167 279° West 360 414 32,300 1,750 Climbing Winnipeg Center
07:21PM 50.0667 -98.9000 278° West 370 426 34,800 1,600 Climbing Winnipeg Center
07:22PM 50.0833 -99.0333 281° West 360 414 35,500 850 Climbing Winnipeg Center
07:23PM 50.1000 -99.2167 278° West 380 437 36,500 1,150 Climbing Winnipeg Center
07:24PM 50.1000 -99.3667 270° West 380 437 37,800 1,200 Climbing Winnipeg Center
07:25PM 50.1167 -99.5500 278° West 380 437 38,900 950 Climbing Winnipeg Center
07:26PM 50.1333 -99.7000 280° West 380 437 39,700 550 Climbing Winnipeg Center
07:27PM 50.1500 -99.8667 279° West 390 449 40,000 150 Climbing Winnipeg Center
07:28PM 50.1500 -100.0500 270° West 390 449 40,000  Level Winnipeg Center
07:29PM 50.1667 -100.2000 280° West 390 449 40,000  Level Winnipeg Center
07:30PM 50.2000 -100.3667 287° West 390 449 40,000  Level Winnipeg Center
07:31PM 50.2167 -100.5500 278° West 390 449 40,000  Level Winnipeg Center
07:32PM 50.2167 -100.7000 270° West 390 449 40,000  Level Winnipeg Center
07:33PM 50.2333 -100.8833 278° West 390 449 40,000  Level Winnipeg Center
07:34PM 50.2500 -101.0500 279° West 390 449 40,000  Level Winnipeg Center
07:35PM 50.2500 -101.2000 270° West 390 449 40,000  Level Winnipeg Center
07:36PM 50.2667 -101.3833 278° West 390 449 40,000  Level Winnipeg Center
07:37PM 50.2667 -101.5500 270° West 390 449 40,000  Level Winnipeg Center
07:38PM 50.3000 -101.7333 286° West 400 460 40,000  Level Winnipeg Center
07:39PM 50.3167 -101.9000 279° West 400 460 40,000  Level Winnipeg Center
07:40PM 50.3167 -102.0833 270° West 400 460 40,000  Level Winnipeg Center
07:41PM 50.3333 -102.2333 280° West 400 460 40,000  Level Winnipeg Center
07:42PM 50.3333 -102.4167 270° West 390 449 40,000  Level Winnipeg Center
07:43PM 50.3500 -102.5833 279° West 390 449 40,000  Level Winnipeg Center
07:44PM 50.3667 -102.7333 280° West 390 449 40,000  Level Winnipeg Center
07:45PM 50.4000 -102.9000 287° West 380 437 40,000  Level Winnipeg Center
07:46PM 50.4167 -103.0833 278° West 380 437 40,000  Level Winnipeg Center
07:47PM 50.4500 -103.2167 291° West 380 437 40,000  Level Winnipeg Center
07:48PM 50.4667 -103.4167 278° West 380 437 40,000  Level Winnipeg Center
07:49PM 50.5000 -103.5667 289° West 380 437 40,000  Level Winnipeg Center
07:50PM 50.5167 -103.7333 279° West 390 449 40,000  Level Winnipeg Center
07:51PM 50.5333 -103.9000 279° West 390 449 40,000  Level Winnipeg Center
07:52PM 50.5667 -104.0667 288° West 380 437 40,000  Level Winnipeg Center
07:53PM 50.5833 -104.2167 280° West 380 437 40,000  Level Winnipeg Center
07:54PM 50.6167 -104.3833 288° West 380 437 40,000  Level Winnipeg Center
07:55PM 50.6333 -104.5500 279° West 380 437 40,000  Level Winnipeg Center
07:56PM 50.6333 -104.7000 270° West 380 437 40,000  Level Winnipeg Center
07:57PM 50.6667 -104.8667 288° West 380 437 40,000  Level Winnipeg Center
07:58PM 50.6833 -105.0333 279° West 380 437 40,000  Level Winnipeg Center
07:59PM 50.7000 -105.2167 278° West 380 437 40,000  Level Winnipeg Center
08:00PM 50.7333 -105.3667 289° West 380 437 40,000  Level Winnipeg Center
08:01PM 50.7500 -105.5500 278° West 380 437 40,000  Level Winnipeg Center
08:02PM 50.7667 -105.7167 279° West 380 437 40,000  Level Winnipeg Center
08:03PM 50.7833 -105.8833 279° West 380 437 40,000  Level Winnipeg Center
08:04PM 50.8167 -106.0333 289° West 380 437 40,000  Level Winnipeg Center
08:05PM 50.8333 -106.2000 279° West 380 437 40,000  Level Winnipeg Center
08:06PM 50.8500 -106.3667 279° West 390 449 40,000  Level Winnipeg Center
08:07PM 50.8500 -106.4667 270° West 390 449 40,000  Level Edmonton Center
08:08PM 50.8667 -106.6167 280° West 390 449 40,000  Level Edmonton Center
08:09PM 50.9000 -106.7833 288° West 380 437 40,000  Level Edmonton Center
08:10PM 50.9167 -106.9667 278° West 390 449 40,000  Level Edmonton Center
08:11PM 50.9333 -107.1333 279° West 390 449 40,000  Level Edmonton Center
08:12PM 50.9500 -107.3000 279° West 380 437 40,000  Level Edmonton Center
08:13PM 50.9667 -107.4500 280° West 380 437 40,000  Level Edmonton Center
08:14PM 50.9833 -107.6500 278° West 380 437 40,000  Level Edmonton Center
08:15PM 51.0000 -107.8000 280° West 380 437 40,000  Level Edmonton Center
08:16PM 51.0167 -107.9667 279° West 390 449 40,000  Level Edmonton Center
08:17PM 51.0333 -108.1500 278° West 380 437 40,000  Level Edmonton Center
08:18PM 51.0500 -108.3167 279° West 380 437 40,000  Level Edmonton Center
08:19PM 51.0667 -108.4833 279° West 390 449 40,000  Level Edmonton Center
08:20PM 51.0833 -108.6667 278° West 390 449 40,000  Level Edmonton Center
08:21PM 51.1000 -108.8333 279° West 390 449 40,000  Level Edmonton Center
08:22PM 51.1167 -109.0000 279° West 390 449 40,000  Level Edmonton Center
08:23PM 51.1333 -109.1667 279° West 390 449 40,000  Level Edmonton Center
08:24PM 51.1500 -109.3500 278° West 390 449 40,000  Level Edmonton Center
08:25PM 51.1667 -109.5167 279° West 390 449 40,000  Level Edmonton Center
08:26PM 51.1833 -109.7000 278° West 390 449 40,000  Level Edmonton Center
08:27PM 51.2000 -109.8667 279° West 390 449 40,000  Level Edmonton Center
08:28PM 51.2000 -110.0333 270° West 390 449 40,000  Level Edmonton Center
08:29PM 51.2167 -110.2000 279° West 390 449 40,000  Level Edmonton Center
08:30PM 51.2333 -110.3833 278° West 390 449 40,000  Level Edmonton Center
08:31PM 51.2500 -110.5500 279° West 390 449 40,000  Level Edmonton Center
08:32PM 51.2667 -110.7167 279° West 390 449 40,000  Level Edmonton Center
08:33PM 51.2833 -110.9000 278° West 390 449 40,000  Level Edmonton Center
08:34PM 51.2833 -111.0667 270° West 390 449 40,000 -100 Level Edmonton Center
08:35PM 51.3167 -111.2667 285° West 400 460 39,800 -900 Descending Edmonton Center
08:36PM 51.3167 -111.4167 270° West 390 449 38,200 -2,100 Descending Edmonton Center
08:37PM 51.3333 -111.5833 279° West 390 449 35,600 -2,350 Descending Edmonton Center
08:38PM 51.3500 -111.7500 279° West 380 437 33,500 -2,050 Descending Edmonton Center
08:39PM 51.3500 -111.9167 270° West 370 426 31,500 -2,050 Descending Edmonton Center
08:40PM 51.3667 -112.0833 279° West 350 403 29,400 -1,950 Descending Edmonton Center
08:41PM 51.3667 -112.2167 270° West 340 391 27,600 -1,900 Descending Edmonton Center
08:42PM 51.4000 -112.3833 288° West 330 380 25,600 -1,950 Descending Edmonton Center
08:43PM 51.4000 -112.5500 270° West 330 380 23,700 -1,800 Descending Edmonton Center
08:44PM 51.4167 -112.6833 281° West 320 368 22,000 -1,800 Descending Edmonton Center
08:45PM 51.4167 -112.8167 270° West 310 357 20,100 -1,800 Descending Edmonton Center
08:46PM 51.4167 -112.9667 270° West 310 357 18,400 -1,650 Descending Edmonton Center
08:47PM 51.4333 -113.0667 285° West 300 345 16,800 -1,550 Descending Edmonton Center
08:48PM 51.4333 -113.2167 270° West 290 334 15,300 -1,050 Descending Edmonton Center
08:49PM 51.4333 -113.3500 270° West 260 299 14,700 -850 Descending Edmonton Center
08:50PM 51.3667 -113.4167 212° Southwest 260 299 13,600 -1,000 Descending Edmonton Center
08:51PM 51.3333 -113.5167 242° Southwest 270 311 12,700 -950 Descending Edmonton Center
08:52PM 51.2667 -113.6167 223° Southwest 280 322 11,700 -1,000 Descending Edmonton Center
08:53PM 51.2500 -113.7167 255° West 250 288 10,700 -1,050 Descending Edmonton Center
08:54PM 51.2667 -113.8333 283° West 250 288 9,600 -1,400 Descending Edmonton Center
08:55PM 51.3000 -113.9500 295° West 240 276 7,900 -1,400 Descending Edmonton Center
08:56PM 51.2833 -114.0167 248° West 220 253 6,800 -700 Descending Edmonton Center
08:57PM 51.2333 -114.0333 192° South 170 196 6,500 -600 Descending Edmonton Center
08:58PM 51.2000 -114.0667 212° Southwest 170 196 5,600 -850 Descending Edmonton Center
08:59PM 51.1500 -114.0500 168° South 150 173 4,800 -800 Descending Edmonton Center
09:00PM 51.1167 -114.0333 163° South 130 150 4,000 -800 Descending Edmonton Center

Login

Don't have an account? Register now (free) for customized features, flight alerts, and more!